Airfield :
LOGIN :

Register | Disclaimer

   EN    FR    IT 

 










Legend :    VFR   Marginal VFR   IFR   Intensive IFR   Very Intensive IFR
Visi :
Ceiling :
>= 8 km
>= 3000ft
5 to 8 km
1000 to 3000 ft
1500m to 5 km
500 to 1000 ft
800 to 1500m
200 to 500 ft
< 800m
< 200 ft
Symbols :   Thunderstorms  Fog  Heavy snow  Heavy precipitations  Wind > 20 kt
SIGMETs :     Misc.  Thunderstorms  Icing  Turbulence  Mountain Waves  Volcanic Ashes






- Airport Elevation : 141 ft
- IATA code : SKS


EKSP - Srydstrup Vojens

CURRENT METAR :
  • 150255Z 07011KT 6000 FEW010 BKN150 05/04 Q1011

EXPIRED METARs :
  • 150220Z 07011KT 6000 FEW010 BKN170 05/04 Q1012
  • 150150Z 07009KT 6000 FEW008 BKN017 05/04 Q1012
  • 150137Z 08010KT 6000 SCT024 05/04 Q1012
  • 150020Z 09010KT 6000 FEW010 SCT015 05/04 Q1012

TAF TAF EKSP
Valid from the 15 at 03:00 until the 16 at 03:00 UTC


150220Z 1503/1603 09010KT 8000 SCT012 BKN180
TEMPO 1503/1506 2500 BR BKN008
BECMG 1506/1508 08018G30KT
BECMG 1515/1517 BKN012
BECMG 1517/1519 08015KT 5000 -RA BKN008
TEMPO 1519/1603 2500 BR BKN003



MET'MAP, your aeronautical weather chart ! - Copyright ORBIFLY December 2007 - Disclaimer

ORBIFLY MET'MAP TEAM :

Programming & Development : Alexandra Zaïnal
Concept & Development : Baudouin d'Aumeries
Co-Development & Prog : Marc-Olivier Méhu
Technical & hardware support : Manuel Goepfert

Contact : metmap@orbifly.com




SOURCES & CREDITS :

   NOAA